Naikai2 — JD2433 — position and weather

sailwx.info

Track history (hours):
 
Tides and Currents Weather Stations Pressure Air Temp Water Temp Dewpoint Dewpoint Depression Visibility Wind Speed Wind Dir Waves Ship Positions

Naikai2

Last reported at 2016-May-01 03:34 UTC. Time now 2016-May-04 04:13 UTC.
Position N 34°37' E 135°08'.

Length 28 m; draft 2.2 m.

Type: Other ship. MMSI: 431000283.

Date/timePositionNaut miles runAvg speedWind from/ knotsBaromVisibWave heightAir tempDewpointWater temp
2016-May-01 03:34N 34°37' E 135°08'2 0.1
2016-Apr-30 04:34N 34°36' E 135°08'1010.1
2016-Apr-30 03:33N 34°36' E 134°56'4 3.8
2016-Apr-30 02:33N 34°36' E 135°01'0 0.0
2016-Apr-30 01:33N 34°36' E 135°01'1 1.2
2016-Apr-30 00:33N 34°37' E 135°01'6 6.4
2016-Apr-29 23:34N 34°36' E 135°09'3 3.1
2016-Apr-29 22:33N 34°39' E 135°10'7 0.5
2016-Apr-29 07:33N 34°37' E 135°01'1 1.0
2016-Apr-29 06:31N 34°37' E 135°02'7 7.1
2016-Apr-29 05:33N 34°39' E 135°10'0 0.0
2016-Apr-29 04:33N 34°39' E 135°10'0 0.0
2016-Apr-28 03:20N 34°39' E 135°10'2 3.2
2016-Apr-28 02:33N 34°39' E 135°13'1211.7
2016-Apr-28 01:33N 34°34' E 135°26'5 5.2
2016-Apr-28 00:34N 34°35' E 135°20'9 9.1
2016-Apr-27 23:33N 34°39' E 135°10'1 0.0
2016-Apr-27 06:16N 34°38' E 135°10'1014.1
2016-Apr-27 05:33N 34°29' E 135°04'1413.9
2016-Apr-27 04:33N 34°16' E 134°58'9 9.4
2016-Apr-27 03:32N 34°25' E 135°01'1010.1
2016-Apr-27 02:33N 34°35' E 135°04'5 0.2
2016-Apr-25 23:33N 34°37' E 134°59'9 9.1
2016-Apr-25 22:33N 34°32' E 135°08'1010.3
2016-Apr-25 21:33N 34°24' E 135°01'1110.9
2016-Apr-25 20:33N 34°13' E 134°59'7 6.4
2016-Apr-25 19:32N 34°19' E 134°59'1515.3
2016-Apr-25 18:33N 34°33' E 135°06'7 0.5
2016-Apr-25 06:07N 34°39' E 135°10'1 2.2
2016-Apr-25 05:33N 34°40' E 135°11'1212.4
2016-Apr-25 04:33N 34°34' E 135°24'1 0.7
2016-Apr-25 03:33N 34°33' E 135°23'2 2.5
2016-Apr-25 02:33N 34°36' E 135°22'1 0.8
2016-Apr-25 01:31N 34°35' E 135°22'2 2.2
2016-Apr-25 00:33N 34°33' E 135°24'8 8.1
2016-Apr-24 23:34N 34°32' E 135°14'1110.5
2016-Apr-24 22:34N 34°27' E 135°04'1313.4
2016-Apr-24 21:33N 34°14' E 134°59'6 5.3
2016-Apr-24 20:23N 34°20' E 134°59'1214.5
2016-Apr-24 19:33N 34°30' E 135°07'9 9.5
2016-Apr-24 18:33N 34°39' E 135°10'0 0.0
2016-Apr-24 00:30N 34°39' E 135°10'1111.0
2016-Apr-23 23:30N 34°37' E 134°57'1010.4
2016-Apr-23 22:33N 34°37' E 135°09'2 2.2
2016-Apr-23 21:33N 34°39' E 135°10'1 0.0
2016-Apr-22 05:33N 34°40' E 135°11'9 9.0
2016-Apr-22 04:33N 34°32' E 135°06'1813.6
2016-Apr-22 03:14N 34°15' E 134°59'910.0
2016-Apr-22 02:17N 34°24' E 135°03'1114.6
2016-Apr-22 01:34N 34°31' E 135°13'10 9.8
2016-Apr-22 00:31N 34°33' E 135°25'5 4.7
2016-Apr-21 23:32N 34°35' E 135°19'  
Track history (hours):
 
Tides and Currents Weather Stations Pressure Air Temp Water Temp Dewpoint Dewpoint Depression Visibility Wind Speed Wind Dir Waves Ship Positions

Naikai2

Last reported at 2016-May-01 03:34 UTC. Time now 2016-May-04 04:13 UTC.
Position N 34°37' E 135°08'.

Length 28 m; draft 2.2 m.

Type: Other ship. MMSI: 431000283.

Date/timePositionNaut miles runAvg speedWind from/ knotsBaromVisibWave heightAir tempDewpointWater temp
2016-May-01 03:34N 34°37' E 135°08'2 0.1
2016-Apr-30 04:34N 34°36' E 135°08'1010.1
2016-Apr-30 03:33N 34°36' E 134°56'4 3.8
2016-Apr-30 02:33N 34°36' E 135°01'0 0.0
2016-Apr-30 01:33N 34°36' E 135°01'1 1.2
2016-Apr-30 00:33N 34°37' E 135°01'6 6.4
2016-Apr-29 23:34N 34°36' E 135°09'3 3.1
2016-Apr-29 22:33N 34°39' E 135°10'7 0.5
2016-Apr-29 07:33N 34°37' E 135°01'1 1.0
2016-Apr-29 06:31N 34°37' E 135°02'7 7.1
2016-Apr-29 05:33N 34°39' E 135°10'0 0.0
2016-Apr-29 04:33N 34°39' E 135°10'0 0.0
2016-Apr-28 03:20N 34°39' E 135°10'2 3.2
2016-Apr-28 02:33N 34°39' E 135°13'1211.7
2016-Apr-28 01:33N 34°34' E 135°26'5 5.2
2016-Apr-28 00:34N 34°35' E 135°20'9 9.1
2016-Apr-27 23:33N 34°39' E 135°10'1 0.0
2016-Apr-27 06:16N 34°38' E 135°10'1014.1
2016-Apr-27 05:33N 34°29' E 135°04'1413.9
2016-Apr-27 04:33N 34°16' E 134°58'9 9.4
2016-Apr-27 03:32N 34°25' E 135°01'1010.1
2016-Apr-27 02:33N 34°35' E 135°04'5 0.2
2016-Apr-25 23:33N 34°37' E 134°59'9 9.1
2016-Apr-25 22:33N 34°32' E 135°08'1010.3
2016-Apr-25 21:33N 34°24' E 135°01'1110.9
2016-Apr-25 20:33N 34°13' E 134°59'7 6.4
2016-Apr-25 19:32N 34°19' E 134°59'1515.3
2016-Apr-25 18:33N 34°33' E 135°06'7 0.5
2016-Apr-25 06:07N 34°39' E 135°10'1 2.2
2016-Apr-25 05:33N 34°40' E 135°11'1212.4
2016-Apr-25 04:33N 34°34' E 135°24'1 0.7
2016-Apr-25 03:33N 34°33' E 135°23'2 2.5
2016-Apr-25 02:33N 34°36' E 135°22'1 0.8
2016-Apr-25 01:31N 34°35' E 135°22'2 2.2
2016-Apr-25 00:33N 34°33' E 135°24'8 8.1
2016-Apr-24 23:34N 34°32' E 135°14'1110.5
2016-Apr-24 22:34N 34°27' E 135°04'1313.4
2016-Apr-24 21:33N 34°14' E 134°59'6 5.3
2016-Apr-24 20:23N 34°20' E 134°59'1214.5
2016-Apr-24 19:33N 34°30' E 135°07'9 9.5
2016-Apr-24 18:33N 34°39' E 135°10'0 0.0
2016-Apr-24 00:30N 34°39' E 135°10'1111.0
2016-Apr-23 23:30N 34°37' E 134°57'1010.4
2016-Apr-23 22:33N 34°37' E 135°09'2 2.2
2016-Apr-23 21:33N 34°39' E 135°10'1 0.0
2016-Apr-22 05:33N 34°40' E 135°11'9 9.0
2016-Apr-22 04:33N 34°32' E 135°06'1813.6
2016-Apr-22 03:14N 34°15' E 134°59'910.0
2016-Apr-22 02:17N 34°24' E 135°03'1114.6
2016-Apr-22 01:34N 34°31' E 135°13'10 9.8
2016-Apr-22 00:31N 34°33' E 135°25'5 4.7
2016-Apr-21 23:32N 34°35' E 135°19'  

Dump ship's entire track history